createdAt,value
2019-03-28T00:00:57.987Z,5.70
2019-03-28T00:03:27.085Z,4.85
2019-03-28T00:05:55.634Z,5.22
2019-03-28T00:08:24.084Z,5.00
2019-03-28T00:10:52.502Z,4.90
2019-03-28T00:13:20.938Z,4.35
2019-03-28T00:15:49.430Z,3.90
2019-03-28T00:18:17.862Z,5.03
2019-03-28T00:20:46.294Z,4.25
2019-03-28T00:23:22.099Z,5.70
2019-03-28T00:25:50.518Z,5.10
2019-03-28T00:28:18.938Z,4.80
2019-03-28T00:30:47.457Z,4.87
2019-03-28T00:33:15.899Z,4.70
2019-03-28T00:35:44.328Z,4.80
2019-03-28T00:38:12.778Z,4.53
2019-03-28T00:40:41.257Z,5.05
2019-03-28T00:43:09.789Z,4.92
2019-03-28T00:45:38.227Z,4.83
2019-03-28T00:48:06.660Z,5.55
2019-03-28T00:50:35.108Z,5.10
2019-03-28T00:53:03.535Z,5.50
2019-03-28T00:55:31.982Z,4.50
2019-03-28T00:58:00.416Z,5.22
2019-03-28T01:00:28.910Z,4.60
2019-03-28T01:02:57.336Z,4.70
2019-03-28T01:05:25.856Z,4.42
2019-03-28T01:07:54.370Z,4.67
2019-03-28T01:10:22.891Z,4.70
2019-03-28T01:12:51.294Z,4.62
2019-03-28T01:15:19.733Z,4.53
2019-03-28T01:17:48.162Z,5.03
2019-03-28T01:20:16.677Z,5.08
2019-03-28T01:22:45.093Z,4.83
2019-03-28T01:25:13.586Z,4.25
2019-03-28T01:27:42.004Z,4.58
2019-03-28T01:30:10.774Z,4.33
2019-03-28T01:32:39.182Z,5.20
2019-03-28T01:35:07.766Z,5.42
2019-03-28T01:37:36.177Z,4.95
2019-03-28T01:40:06.240Z,4.28
2019-03-28T01:42:34.670Z,5.20
2019-03-28T01:45:03.859Z,4.30
2019-03-28T01:47:32.291Z,4.92
2019-03-28T01:50:00.703Z,4.80
2019-03-28T01:52:29.146Z,4.53
2019-03-28T01:54:57.553Z,4.65
2019-03-28T01:57:26.003Z,5.45
2019-03-28T01:59:54.403Z,5.25
2019-03-28T02:02:22.839Z,4.95
2019-03-28T02:04:51.818Z,5.30
2019-03-28T02:07:20.737Z,5.95
2019-03-28T02:09:49.150Z,4.75
2019-03-28T02:12:17.586Z,4.70
2019-03-28T02:14:46.018Z,4.83
2019-03-28T02:17:14.449Z,4.62
2019-03-28T02:19:42.871Z,5.00
2019-03-28T02:22:11.316Z,4.47
2019-03-28T02:24:39.731Z,5.33
2019-03-28T02:27:08.170Z,4.90
2019-03-28T02:29:36.582Z,5.30
2019-03-28T02:32:05.019Z,4.47
2019-03-28T02:34:33.439Z,4.97
2019-03-28T02:37:01.848Z,4.83
2019-03-28T02:39:30.280Z,4.90
2019-03-28T02:41:58.694Z,4.53
2019-03-28T02:44:27.140Z,4.53
2019-03-28T02:46:55.548Z,4.55
2019-03-28T02:49:24.058Z,4.67
2019-03-28T02:51:52.464Z,3.98
2019-03-28T02:54:20.902Z,5.33
2019-03-28T02:56:49.316Z,4.90
2019-03-28T02:59:17.754Z,5.08
2019-03-28T03:01:46.166Z,4.55
2019-03-28T03:04:14.674Z,4.35
2019-03-28T03:06:43.172Z,4.35
2019-03-28T03:09:11.607Z,4.08
2019-03-28T03:11:42.778Z,5.10
2019-03-28T03:14:10.194Z,4.22
2019-03-28T03:16:38.600Z,3.52
2019-03-28T03:19:07.102Z,4.90
2019-03-28T03:21:36.048Z,4.30
2019-03-28T03:24:05.003Z,4.65
2019-03-28T03:26:33.629Z,4.40
2019-03-28T03:29:02.112Z,4.97
2019-03-28T03:31:30.557Z,4.50
2019-03-28T03:33:58.966Z,5.72
2019-03-28T03:36:27.390Z,5.10
2019-03-28T03:38:55.816Z,4.83
2019-03-28T03:41:24.259Z,4.12
2019-03-28T03:43:52.673Z,4.30
2019-03-28T03:46:21.111Z,4.75
2019-03-28T03:48:49.524Z,4.55
2019-03-28T03:51:17.959Z,5.15
2019-03-28T03:53:46.370Z,4.50
2019-03-28T03:56:14.818Z,4.65
2019-03-28T03:58:43.230Z,4.65
2019-03-28T04:01:11.671Z,4.45
2019-03-28T04:03:40.088Z,4.30
2019-03-28T04:06:08.516Z,4.62
2019-03-28T04:08:37.008Z,4.35
2019-03-28T04:11:05.436Z,4.80
2019-03-28T04:13:33.852Z,4.20
2019-03-28T04:16:02.277Z,4.65
2019-03-28T04:18:30.757Z,4.75
2019-03-28T04:20:59.187Z,5.05
2019-03-28T04:23:27.609Z,5.03
2019-03-28T04:25:56.057Z,4.60
2019-03-28T04:28:31.761Z,5.00
2019-03-28T04:30:54.631Z,4.53
2019-03-28T04:33:23.112Z,4.90
2019-03-28T04:35:51.527Z,4.37
2019-03-28T04:38:19.964Z,4.75
2019-03-28T04:40:48.416Z,4.55
2019-03-28T04:43:16.842Z,4.33
2019-03-28T04:45:45.246Z,4.87
2019-03-28T04:48:13.680Z,5.17
2019-03-28T04:50:42.278Z,4.47
2019-03-28T04:53:11.519Z,4.67
2019-03-28T04:55:40.129Z,4.62
2019-03-28T04:58:08.563Z,4.87
2019-03-28T05:00:36.998Z,4.80
2019-03-28T05:03:05.525Z,3.65
2019-03-28T05:05:33.939Z,4.50
2019-03-28T05:08:02.371Z,4.78
2019-03-28T05:10:33.157Z,4.92
2019-03-28T05:13:00.961Z,4.17
2019-03-28T05:15:29.405Z,5.60
2019-03-28T05:17:57.895Z,5.00
2019-03-28T05:20:26.318Z,4.25
2019-03-28T05:22:54.879Z,4.72
2019-03-28T05:25:24.307Z,4.67
2019-03-28T05:27:52.890Z,4.47
2019-03-28T05:30:21.407Z,5.15
2019-03-28T05:32:49.844Z,4.17
2019-03-28T05:35:18.253Z,4.50
2019-03-28T05:37:46.680Z,4.55
2019-03-28T05:40:16.705Z,4.62
2019-03-28T05:42:45.151Z,5.30
2019-03-28T05:45:13.767Z,4.70
2019-03-28T05:47:42.188Z,4.58
2019-03-28T05:50:10.782Z,7.22
2019-03-28T05:52:39.229Z,9.60
2019-03-28T05:55:07.880Z,7.95
2019-03-28T05:57:36.361Z,6.35
2019-03-28T06:00:05.527Z,5.62
2019-03-28T06:02:33.957Z,6.00
2019-03-28T06:05:02.414Z,5.10
2019-03-28T06:07:30.878Z,6.03
2019-03-28T06:09:59.322Z,5.65
2019-03-28T06:12:27.738Z,6.03
2019-03-28T06:14:56.196Z,7.17
2019-03-28T06:17:24.622Z,7.10
2019-03-28T06:19:53.077Z,6.95
2019-03-28T06:22:21.479Z,6.15
2019-03-28T06:24:50.009Z,6.30
2019-03-28T06:27:19.291Z,5.70
2019-03-28T06:29:47.789Z,5.45
2019-03-28T06:32:16.273Z,5.62
2019-03-28T06:34:44.700Z,5.12
2019-03-28T06:37:13.107Z,4.67
2019-03-28T06:39:41.556Z,4.85
2019-03-28T06:42:09.983Z,4.62
2019-03-28T06:44:38.418Z,3.60
2019-03-28T06:47:06.832Z,3.55
2019-03-28T06:49:35.259Z,3.80
2019-03-28T06:52:05.229Z,4.15
2019-03-28T06:54:33.714Z,3.98
2019-03-28T06:57:02.172Z,4.00
2019-03-28T06:59:37.288Z,4.87
2019-03-28T07:02:00.919Z,4.78
2019-03-28T07:04:30.242Z,3.95
2019-03-28T07:06:58.788Z,4.28
2019-03-28T07:09:27.222Z,4.10
2019-03-28T07:11:55.672Z,3.67
2019-03-28T07:14:24.196Z,4.53
2019-03-28T07:16:52.636Z,4.60
2019-03-28T07:19:21.114Z,3.60
2019-03-28T07:21:49.567Z,4.00
2019-03-28T07:24:17.998Z,3.77
2019-03-28T07:26:46.447Z,4.70
2019-03-28T07:29:14.883Z,4.70
2019-03-28T07:31:43.300Z,4.62
2019-03-28T07:34:13.543Z,5.37
2019-03-28T07:36:41.916Z,5.50
2019-03-28T07:39:10.350Z,6.83
2019-03-28T07:41:38.798Z,7.78
2019-03-28T07:44:07.296Z,6.00
2019-03-28T07:46:35.807Z,8.48
2019-03-28T07:49:04.305Z,7.15
2019-03-28T07:51:32.734Z,9.05
2019-03-28T07:54:01.175Z,6.08
2019-03-28T07:56:31.138Z,5.50
2019-03-28T07:58:59.579Z,4.62
2019-03-28T08:01:28.052Z,4.25
2019-03-28T08:03:56.539Z,4.60
2019-03-28T08:06:24.956Z,3.93
2019-03-28T08:08:53.398Z,4.47
2019-03-28T08:11:21.970Z,4.27
2019-03-28T08:13:50.516Z,4.27
2019-03-28T08:16:19.027Z,4.03
2019-03-28T08:18:47.496Z,4.50
2019-03-28T08:21:15.983Z,4.20
2019-03-28T08:23:44.447Z,4.30
2019-03-28T08:26:13.025Z,3.93
2019-03-28T08:28:41.467Z,4.60
2019-03-28T08:31:09.891Z,4.27
2019-03-28T08:33:40.438Z,4.67
2019-03-28T08:36:09.251Z,5.00
2019-03-28T08:38:39.614Z,4.07
2019-03-28T08:41:08.067Z,4.30
2019-03-28T08:43:36.531Z,4.20
2019-03-28T08:46:08.519Z,3.90
2019-03-28T08:48:35.382Z,3.93
2019-03-28T08:51:03.873Z,4.50
2019-03-28T08:53:32.290Z,4.57
2019-03-28T08:56:00.799Z,3.80
2019-03-28T08:58:29.251Z,4.90
2019-03-28T09:00:57.696Z,4.10
2019-03-28T09:03:26.124Z,5.40
2019-03-28T09:05:54.587Z,4.17
2019-03-28T09:08:23.014Z,4.63
2019-03-28T09:10:51.543Z,4.30
2019-03-28T09:13:19.951Z,4.00
2019-03-28T09:15:48.474Z,3.57
2019-03-28T09:18:16.927Z,4.50
2019-03-28T09:20:45.430Z,3.77
2019-03-28T09:23:13.853Z,4.50
2019-03-28T09:25:42.312Z,5.20
2019-03-28T09:28:10.734Z,4.73
2019-03-28T09:30:48.982Z,4.50
2019-03-28T09:33:13.072Z,3.80
2019-03-28T09:35:41.616Z,3.53
2019-03-28T09:38:10.185Z,3.83
2019-03-28T09:40:38.642Z,3.93
2019-03-28T09:43:07.324Z,4.70
2019-03-28T09:45:35.843Z,4.57
2019-03-28T09:48:04.339Z,4.00
2019-03-28T09:50:32.763Z,4.30
2019-03-28T09:53:01.276Z,3.53
2019-03-28T09:55:29.916Z,3.80
2019-03-28T09:57:58.355Z,3.30
2019-03-28T10:00:26.979Z,4.40
2019-03-28T10:02:55.562Z,3.70
2019-03-28T10:05:24.088Z,3.83
2019-03-28T10:07:52.535Z,3.70
2019-03-28T10:10:21.028Z,3.80
2019-03-28T10:12:49.485Z,3.63
2019-03-28T10:15:18.447Z,4.07
2019-03-28T10:17:46.895Z,3.67
2019-03-28T10:20:15.555Z,4.40
2019-03-28T10:22:44.006Z,3.93
2019-03-28T10:25:13.830Z,3.67
2019-03-28T10:27:42.953Z,3.33
2019-03-28T10:30:11.823Z,3.10
2019-03-28T10:32:40.336Z,3.43
2019-03-28T10:35:09.152Z,3.73
2019-03-28T10:37:37.648Z,3.27
2019-03-28T10:40:09.427Z,3.40
2019-03-28T10:42:37.878Z,4.20
2019-03-28T10:45:07.448Z,4.03
2019-03-28T10:47:35.877Z,3.30
2019-03-28T10:50:06.028Z,3.63
2019-03-28T10:52:34.476Z,3.87
2019-03-28T10:55:03.135Z,4.30
2019-03-28T10:57:32.286Z,4.20
2019-03-28T11:00:01.148Z,4.27
2019-03-28T11:02:29.678Z,4.00
2019-03-28T11:04:58.114Z,3.73
2019-03-28T11:07:26.542Z,4.60
2019-03-28T11:09:54.997Z,3.93
2019-03-28T11:12:23.416Z,4.13
2019-03-28T11:14:51.847Z,3.53
2019-03-28T11:17:20.278Z,3.77
2019-03-28T11:19:48.721Z,3.57
2019-03-28T11:22:17.141Z,4.00
2019-03-28T11:24:46.549Z,4.27
2019-03-28T11:27:15.143Z,3.97
2019-03-28T11:29:43.603Z,3.83
2019-03-28T11:32:12.108Z,4.30
2019-03-28T11:34:40.880Z,4.30
2019-03-28T11:37:19.968Z,3.30
2019-03-28T11:39:39.770Z,3.63
2019-03-28T11:42:08.428Z,3.77
2019-03-28T11:44:38.382Z,3.30
2019-03-28T11:47:06.798Z,3.10
2019-03-28T11:49:35.215Z,4.00
2019-03-28T11:52:05.199Z,3.17
2019-03-28T11:54:33.662Z,4.00
2019-03-28T11:57:02.133Z,4.20
2019-03-28T11:59:30.691Z,3.47
2019-03-28T12:02:06.416Z,3.20
2019-03-28T12:04:29.323Z,4.07
2019-03-28T12:06:57.759Z,3.97
2019-03-28T12:09:26.199Z,3.60
2019-03-28T12:11:54.671Z,3.63
2019-03-28T12:14:23.110Z,3.17
2019-03-28T12:16:51.566Z,3.43
2019-03-28T12:19:19.973Z,3.87
2019-03-28T12:21:48.419Z,3.37
2019-03-28T12:24:16.843Z,3.63
2019-03-28T12:26:45.280Z,3.40
2019-03-28T12:29:13.695Z,3.93
2019-03-28T12:31:43.802Z,2.97
2019-03-28T12:34:12.221Z,3.57
2019-03-28T12:36:40.739Z,3.40
2019-03-28T12:39:09.242Z,3.20
2019-03-28T12:41:37.712Z,4.07
2019-03-28T12:44:06.202Z,3.63
2019-03-28T12:46:34.651Z,4.07
2019-03-28T12:49:03.085Z,3.80
2019-03-28T12:51:31.517Z,4.37
2019-03-28T12:53:59.938Z,3.70
2019-03-28T12:56:28.380Z,3.67
2019-03-28T12:58:56.935Z,3.93
2019-03-28T13:01:25.390Z,4.67
2019-03-28T13:03:53.811Z,4.83
2019-03-28T13:06:22.260Z,4.50
2019-03-28T13:08:50.691Z,4.50
2019-03-28T13:11:19.724Z,4.60
2019-03-28T13:13:48.434Z,4.43
2019-03-28T13:16:16.893Z,4.63
2019-03-28T13:18:45.332Z,4.63
2019-03-28T13:21:14.322Z,4.33
2019-03-28T13:23:42.996Z,3.90
2019-03-28T13:26:11.408Z,5.03
2019-03-28T13:28:39.839Z,3.83
2019-03-28T13:31:08.279Z,3.97
2019-03-28T13:33:36.747Z,3.77
2019-03-28T13:36:05.286Z,3.80
2019-03-28T13:38:33.754Z,3.60
2019-03-28T13:41:02.199Z,3.97
2019-03-28T13:43:30.935Z,4.50
2019-03-28T13:45:59.551Z,3.10
2019-03-28T13:48:27.989Z,3.40
2019-03-28T13:50:56.427Z,3.03
2019-03-28T13:53:38.343Z,3.67
2019-03-28T13:55:55.031Z,3.60
2019-03-28T13:58:23.545Z,3.93
2019-03-28T14:00:54.440Z,3.23
2019-03-28T14:03:22.130Z,4.00
2019-03-28T14:05:50.567Z,4.03
2019-03-28T14:08:19.016Z,4.00
2019-03-28T14:10:47.426Z,4.23
2019-03-28T14:13:15.888Z,3.80
2019-03-28T14:15:44.299Z,3.60
2019-03-28T14:18:12.766Z,4.30
2019-03-28T14:20:41.201Z,3.63
2019-03-28T14:23:09.645Z,3.30
2019-03-28T14:25:38.066Z,3.73
2019-03-28T14:28:06.507Z,2.97
2019-03-28T14:30:34.978Z,3.30
2019-03-28T14:33:11.251Z,3.10
2019-03-28T14:35:34.608Z,2.23
2019-03-28T14:38:03.104Z,3.13
2019-03-28T14:40:31.690Z,3.80
2019-03-28T14:43:00.155Z,2.80
2019-03-28T14:45:28.656Z,3.30
2019-03-28T14:47:57.245Z,2.60
2019-03-28T14:50:39.425Z,3.00
2019-03-28T14:53:08.198Z,2.83
2019-03-28T14:55:36.887Z,2.70
2019-03-28T14:58:06.913Z,2.80
2019-03-28T15:00:47.988Z,2.80
2019-03-28T15:03:25.756Z,3.50
2019-03-28T15:05:46.953Z,3.23
2019-03-28T15:08:15.379Z,3.20
2019-03-28T15:10:44.015Z,3.60
2019-03-28T15:13:12.453Z,4.30
2019-03-28T15:15:41.674Z,3.77
2019-03-28T15:18:10.102Z,5.70
2019-03-28T15:20:38.550Z,5.43
2019-03-28T15:23:06.986Z,5.27
2019-03-28T15:25:35.787Z,4.93
2019-03-28T15:28:04.257Z,5.00
2019-03-28T15:30:32.710Z,4.40
2019-03-28T15:33:01.130Z,5.63
2019-03-28T15:35:29.558Z,4.40
2019-03-28T15:37:58.079Z,4.70
2019-03-28T15:40:26.501Z,4.00
2019-03-28T15:42:54.939Z,3.70
2019-03-28T15:45:23.445Z,3.60
2019-03-28T15:47:52.317Z,4.10
2019-03-28T15:50:20.948Z,3.50
2019-03-28T15:52:49.420Z,3.10
2019-03-28T15:55:17.884Z,3.20
2019-03-28T15:57:46.424Z,3.73
2019-03-28T16:00:15.728Z,4.00
2019-03-28T16:02:44.245Z,3.47
2019-03-28T16:05:12.751Z,3.50
2019-03-28T16:07:41.207Z,2.60
2019-03-28T16:10:10.062Z,2.60
2019-03-28T16:12:38.527Z,2.20
2019-03-28T16:15:08.338Z,2.37
2019-03-28T16:17:36.787Z,2.87
2019-03-28T16:20:06.762Z,2.30
2019-03-28T16:22:35.290Z,2.20
2019-03-28T16:25:04.958Z,2.20
2019-03-28T16:27:33.385Z,2.13
2019-03-28T16:30:01.860Z,2.80
2019-03-28T16:32:30.299Z,2.10
2019-03-28T16:34:58.846Z,2.20
2019-03-28T16:37:27.807Z,2.10
2019-03-28T16:39:56.485Z,2.10
2019-03-28T16:42:24.905Z,3.17
2019-03-28T16:44:53.363Z,3.10
2019-03-28T16:47:21.799Z,3.27
2019-03-28T16:49:50.330Z,3.23
2019-03-28T16:52:18.730Z,2.97
2019-03-28T16:54:47.182Z,3.97
2019-03-28T16:57:15.618Z,3.93
2019-03-28T16:59:44.233Z,3.60
2019-03-28T17:02:14.266Z,4.10
2019-03-28T17:04:42.788Z,4.00
2019-03-28T17:07:11.266Z,3.87
2019-03-28T17:09:40.481Z,4.17
2019-03-28T17:12:09.132Z,3.73
2019-03-28T17:14:37.703Z,3.83
2019-03-28T17:17:06.132Z,3.77
2019-03-28T17:19:34.582Z,4.10
2019-03-28T17:22:03.299Z,4.37
2019-03-28T17:24:33.268Z,3.80
2019-03-28T17:27:01.794Z,3.73
2019-03-28T17:29:30.224Z,4.00
2019-03-28T17:31:58.756Z,4.57
2019-03-28T17:34:34.631Z,3.80
2019-03-28T17:36:57.362Z,3.30
2019-03-28T17:39:25.827Z,3.70
2019-03-28T17:41:54.340Z,3.70
2019-03-28T17:44:22.822Z,4.57
2019-03-28T17:46:51.292Z,3.47
2019-03-28T17:49:19.733Z,3.43
2019-03-28T17:51:48.190Z,3.90
2019-03-28T17:54:16.614Z,3.47
2019-03-28T17:56:45.066Z,3.40
2019-03-28T17:59:13.482Z,3.67
2019-03-28T18:01:41.921Z,3.07
2019-03-28T18:04:22.210Z,3.47
2019-03-28T18:06:40.564Z,3.40
2019-03-28T18:09:09.271Z,3.10
2019-03-28T18:11:37.693Z,3.60
2019-03-28T18:14:06.194Z,2.67
2019-03-28T18:16:34.759Z,3.23
2019-03-28T18:19:03.184Z,3.37
2019-03-28T18:21:31.638Z,3.27
2019-03-28T18:24:00.067Z,3.10
2019-03-28T18:26:28.495Z,3.27
2019-03-28T18:28:56.981Z,3.03
2019-03-28T18:31:25.475Z,2.83
2019-03-28T18:33:53.994Z,3.67
2019-03-28T18:36:22.471Z,3.60
2019-03-28T18:38:52.459Z,3.80
2019-03-28T18:41:21.131Z,3.07
2019-03-28T18:43:49.851Z,3.60
2019-03-28T18:46:18.514Z,3.70
2019-03-28T18:48:47.036Z,3.35
2019-03-28T18:51:15.486Z,3.20
2019-03-28T18:53:43.923Z,3.50
2019-03-28T18:56:12.362Z,3.40
2019-03-28T18:58:40.820Z,3.72
2019-03-28T19:01:09.291Z,4.00
2019-03-28T19:03:37.809Z,4.35
2019-03-28T19:06:06.492Z,4.57
2019-03-28T19:08:34.983Z,4.40
2019-03-28T19:11:04.009Z,4.20
2019-03-28T19:13:32.763Z,3.40
2019-03-28T19:16:01.229Z,3.73
2019-03-28T19:18:29.646Z,3.50
2019-03-28T19:20:58.379Z,4.35
2019-03-28T19:23:26.810Z,4.70
2019-03-28T19:25:55.258Z,4.30
2019-03-28T19:28:28.973Z,3.87
2019-03-28T19:30:53.863Z,4.70
2019-03-28T19:33:22.308Z,4.67
2019-03-28T19:35:51.696Z,3.57
2019-03-28T19:38:20.474Z,4.55
2019-03-28T19:40:48.954Z,4.50
2019-03-28T19:43:20.835Z,5.00
2019-03-28T19:45:47.804Z,4.60
2019-03-28T19:48:16.293Z,4.97
2019-03-28T19:50:44.800Z,5.63
2019-03-28T19:53:13.284Z,4.65
2019-03-28T19:55:41.745Z,4.85
2019-03-28T19:58:13.420Z,5.62
2019-03-28T20:00:40.439Z,5.28
2019-03-28T20:03:08.868Z,5.10
2019-03-28T20:05:47.339Z,5.47
2019-03-28T20:08:15.390Z,5.87
2019-03-28T20:10:37.679Z,6.40
2019-03-28T20:13:06.195Z,6.37
2019-03-28T20:15:34.634Z,6.00
2019-03-28T20:18:03.355Z,6.33
2019-03-28T20:20:31.885Z,6.17
2019-03-28T20:23:00.330Z,5.78
2019-03-28T20:25:28.765Z,6.95
2019-03-28T20:27:57.211Z,6.67
2019-03-28T20:30:25.794Z,6.30
2019-03-28T20:32:54.228Z,6.22
2019-03-28T20:35:22.667Z,6.78
2019-03-28T20:37:51.130Z,5.92
2019-03-28T20:40:19.981Z,5.45
2019-03-28T20:42:48.538Z,6.78
2019-03-28T20:45:17.310Z,6.80
2019-03-28T20:47:45.754Z,6.53
2019-03-28T20:50:16.087Z,7.10
2019-03-28T20:52:44.838Z,6.17
2019-03-28T20:55:15.082Z,7.17
2019-03-28T20:57:43.551Z,6.35
2019-03-28T21:00:13.221Z,6.42
2019-03-28T21:02:41.858Z,7.25
2019-03-28T21:05:10.952Z,6.22
2019-03-28T21:07:39.537Z,6.75
2019-03-28T21:10:09.976Z,6.90
2019-03-28T21:12:38.448Z,6.65
2019-03-28T21:15:08.428Z,6.10
2019-03-28T21:17:36.866Z,6.12
2019-03-28T21:20:06.967Z,6.00
2019-03-28T21:22:35.389Z,6.15
2019-03-28T21:25:05.710Z,6.37
2019-03-28T21:27:34.200Z,6.10
2019-03-28T21:30:02.683Z,6.00
2019-03-28T21:32:31.113Z,6.20
2019-03-28T21:34:59.562Z,4.95
2019-03-28T21:37:27.988Z,4.85
2019-03-28T21:39:56.428Z,5.10
2019-03-28T21:42:25.021Z,4.60
2019-03-28T21:44:53.548Z,4.17
2019-03-28T21:47:21.975Z,4.08
2019-03-28T21:49:50.450Z,4.30
2019-03-28T21:52:18.894Z,4.10
2019-03-28T21:54:47.358Z,3.55
2019-03-28T21:57:15.803Z,3.67
2019-03-28T21:59:44.255Z,4.95
2019-03-28T22:02:12.749Z,3.85
2019-03-28T22:04:41.194Z,3.75
2019-03-28T22:07:09.627Z,3.58
2019-03-28T22:09:39.705Z,4.30
2019-03-28T22:12:08.255Z,4.60
2019-03-28T22:14:36.702Z,3.83
2019-03-28T22:17:05.140Z,3.98
2019-03-28T22:19:33.599Z,3.67
2019-03-28T22:22:02.326Z,4.70
2019-03-28T22:24:30.855Z,4.72
2019-03-28T22:26:59.297Z,4.40
2019-03-28T22:29:27.718Z,4.85
2019-03-28T22:31:56.806Z,4.60
2019-03-28T22:34:25.407Z,4.10
2019-03-28T22:36:57.584Z,5.25
2019-03-28T22:39:24.002Z,4.37
2019-03-28T22:41:52.458Z,4.78
2019-03-28T22:44:20.958Z,4.22
2019-03-28T22:46:49.408Z,5.83
2019-03-28T22:49:17.842Z,5.60
2019-03-28T22:51:46.374Z,5.05
2019-03-28T22:54:14.802Z,4.72
2019-03-28T22:56:43.252Z,5.40
2019-03-28T22:59:11.696Z,6.28
2019-03-28T23:01:40.257Z,6.65
2019-03-28T23:04:08.778Z,6.15
2019-03-28T23:06:37.218Z,6.35
2019-03-28T23:09:07.176Z,6.42
2019-03-28T23:11:35.722Z,6.53
2019-03-28T23:14:04.475Z,6.28
2019-03-28T23:16:32.988Z,5.55
2019-03-28T23:19:01.594Z,5.53
2019-03-28T23:21:30.024Z,6.70
2019-03-28T23:23:58.449Z,6.05
2019-03-28T23:26:27.135Z,5.75
2019-03-28T23:28:55.590Z,6.92
2019-03-28T23:31:24.018Z,7.53
2019-03-28T23:33:52.455Z,6.20
2019-03-28T23:36:20.883Z,6.08
2019-03-28T23:38:49.342Z,6.30
2019-03-28T23:41:17.762Z,7.03
2019-03-28T23:43:46.214Z,6.35
2019-03-28T23:46:14.674Z,6.60
2019-03-28T23:48:43.116Z,6.75
2019-03-28T23:51:11.531Z,7.30
2019-03-28T23:53:39.989Z,7.53
2019-03-28T23:56:08.454Z,7.17
2019-03-28T23:58:37.048Z,8.23
